Time;durP1;ratioP1;P1;durP2;ratioP2;P2;SDS_P1;SDS_P2;PMS_P1;PMS_P2;Temp;Humidity;BMP_temperature;BMP_pressure;BME280_temperature;BME280_humidity;BME280_pressure;Samples;Min_cycle;Max_cycle;Signal;HPM_P1;HPM_P2
2023/02/06 00:01:50;;;;;;;;;41.33;34.67;;;;;-5.55;86.23;101562.16;6278344;20;3595080;-51
2023/02/06 00:04:20;;;;;;;;;43.67;34.67;;;;;-5.47;85.90;101565.03;6270474;20;3603439;-50
2023/02/06 00:06:48;;;;;;;;;47.33;26.33;;;;;-5.36;85.38;101566.28;6276765;20;3608615;-51
2023/02/06 00:09:17;;;;;;;;;38.33;25.00;;;;;-5.39;85.24;101574.03;6278961;20;3593088;-50
2023/02/06 00:11:46;;;;;;;;;32.67;26.33;;;;;-5.65;85.98;101578.38;6279403;20;3562912;-48
2023/02/06 00:14:14;;;;;;;;;46.00;32.00;;;;;-5.62;86.22;101585.44;6312400;20;2874320;-47
2023/02/06 00:16:44;;;;;;;;;30.67;23.33;;;;;-5.54;86.82;101587.47;6303711;20;2850416;-52
2023/02/06 00:19:13;;;;;;;;;39.33;29.33;;;;;-5.25;85.86;101574.47;6314273;20;3612110;-48
2023/02/06 00:21:41;;;;;;;;;32.00;24.00;;;;;-5.20;84.94;101564.16;6282360;20;2844027;-50
2023/02/06 00:24:10;;;;;;;;;39.00;24.67;;;;;-5.45;85.47;101575.53;6285426;20;3600298;-49
2023/02/06 00:26:39;;;;;;;;;37.00;28.33;;;;;-5.35;84.97;101580.25;6283466;20;3598583;-50
2023/02/06 00:29:06;;;;;;;;;42.50;30.00;;;;;-5.35;84.38;101588.09;6293248;20;2500537;-51
2023/02/06 00:31:35;;;;;;;;;40.67;33.67;;;;;-5.52;85.01;101583.19;6284567;20;3605504;-49
2023/02/06 00:34:03;;;;;;;;;40.50;27.00;;;;;-5.54;85.65;101595.31;6288140;20;2858595;-47
2023/02/06 00:36:32;;;;;;;;;41.00;30.67;;;;;-5.81;86.66;101600.50;6283687;20;3608636;-48
2023/02/06 00:39:02;;;;;;;;;34.33;25.00;;;;;-5.70;87.18;101608.72;6287393;20;3594007;-47
2023/02/06 00:41:30;;;;;;;;;28.00;21.67;;;;;-6.13;88.82;101607.22;6280460;20;3580583;-50
2023/02/06 00:43:59;;;;;;;;;27.33;26.00;;;;;-5.87;88.16;101610.75;6280810;20;3584655;-49
2023/02/06 00:46:28;;;;;;;;;45.00;35.67;;;;;-5.86;88.11;101601.16;6316585;20;3603489;-48
2023/02/06 00:48:58;;;;;;;;;24.33;21.50;;;;;-5.81;86.97;101607.44;6320223;20;1844045;-49
2023/02/06 00:51:27;;;;;;;;;21.00;19.00;;;;;-5.65;86.90;101596.69;6286814;20;3552528;-48
2023/02/06 00:53:56;;;;;;;;;35.33;28.33;;;;;-5.68;86.11;101595.69;6317705;20;3585841;-52
2023/02/06 00:56:24;;;;;;;;;41.67;30.00;;;;;-5.82;86.61;101592.56;6317620;20;3599304;-49
2023/02/06 00:58:52;;;;;;;;;32.00;26.00;;;;;-5.64;86.29;101590.59;6281268;20;2848223;-50
2023/02/06 01:01:21;;;;;;;;;28.67;24.00;;;;;-6.01;87.23;101586.72;6283359;20;3590036;-48
2023/02/06 01:03:50;;;;;;;;;46.00;38.67;;;;;-5.93;87.35;101588.72;6284494;20;3590885;-50
2023/02/06 01:06:19;;;;;;;;;50.67;36.67;;;;;-5.86;87.16;101596.81;6284919;20;3606520;-51
2023/02/06 01:08:48;;;;;;;;;42.33;36.33;;;;;-5.72;86.51;101584.22;6282130;20;3607552;-49
2023/02/06 01:11:23;;;;;;;;;36.50;26.00;;;;;-5.68;86.45;101580.88;6277861;20;2548200;-47
2023/02/06 01:13:53;;;;;;;;;38.00;30.00;;;;;-5.77;86.85;101575.31;6281611;20;3610695;-49
2023/02/06 01:16:24;;;;;;;;;36.50;24.50;;;;;-5.66;86.25;101579.22;6280216;20;2839896;-48
2023/02/06 01:18:54;;;;;;;;;24.67;21.83;;;;;-5.61;85.94;101576.75;6316532;20;1842009;-51
2023/02/06 01:21:24;;;;;;;;;31.00;24.00;;;;;-5.68;85.57;101582.63;6282765;20;2832878;-47
2023/02/06 01:23:54;;;;;;;;;30.00;22.33;;;;;-5.68;85.42;101575.66;6315145;20;3578396;-48
2023/02/06 01:26:26;;;;;;;;;36.33;23.50;;;;;-5.57;85.29;101573.41;6334042;20;3603545;-50
2023/02/06 01:28:55;;;;;;;;;30.33;24.33;;;;;-5.63;84.96;101578.44;6284036;20;3578421;-47
2023/02/06 01:31:29;;;;;;;;;27.50;21.00;;;;;-5.73;85.03;101572.00;6311033;20;2836870;-48
2023/02/06 01:33:59;;;;;;;;;27.00;22.00;;;;;-5.74;85.15;101580.66;6282704;20;2825503;-50
2023/02/06 01:36:28;;;;;;;;;31.00;20.33;;;;;-5.84;85.53;101575.97;6313902;20;3590888;-50
2023/02/06 01:38:57;;;;;;;;;24.33;19.00;;;;;-5.59;84.78;101569.84;6280446;20;2827400;-50
2023/02/06 01:41:26;;;;;;;;;27.00;24.67;;;;;-5.58;84.15;101580.38;6313148;20;3560860;-51
2023/02/06 01:44:21;;;;;;;;;43.00;26.00;;;;;-5.73;84.38;101577.22;6311524;20;2873302;-48
2023/02/06 01:46:54;;;;;;;;;33.00;27.00;;;;;-5.73;84.53;101577.22;6282478;20;2725286;-47
2023/02/06 01:49:47;;;;;;;;;29.67;26.67;;;;;-5.75;84.31;101584.13;6313247;20;3576293;-52
2023/02/06 01:52:24;;;;;;;;;41.50;33.00;;;;;-5.81;85.00;101589.16;6279059;20;2864912;-51
2023/02/06 01:54:59;;;;;;;;;46.00;35.00;;;;;-5.84;85.38;101583.81;6280490;20;2861704;-48
2023/02/06 01:57:28;;;;;;;;;42.50;33.00;;;;;-5.81;85.03;101581.28;6283840;20;2874224;-50
2023/02/06 02:00:07;;;;;;;;;42.50;31.00;;;;;-5.87;84.64;101583.66;6280317;20;2868043;-50
2023/02/06 02:02:43;;;;;;;;;30.67;22.67;;;;;-5.88;85.05;101589.75;6284689;20;3592105;-50
2023/02/06 02:05:12;;;;;;;;;31.67;26.33;;;;;-6.03;84.76;101583.19;6278517;20;3574228;-51
2023/02/06 02:08:00;;;;;;;;;25.00;19.67;;;;;-5.98;84.92;101580.72;6314363;20;3560819;-52
2023/02/06 02:10:30;;;;;;;;;22.67;18.67;;;;;-5.79;84.75;101580.50;6307588;20;2848205;-49
2023/02/06 02:12:59;;;;;;;;;22.67;19.00;;;;;-5.74;84.51;101572.81;6313149;20;3575358;-51
2023/02/06 02:15:48;;;;;;;;;35.33;25.00;;;;;-5.66;84.10;101557.38;6313901;20;3600365;-50
2023/02/06 02:19:09;;;;;;;;;31.33;27.00;;;;;-5.72;83.52;101558.06;6310878;20;3586833;-50
2023/02/06 02:22:27;;;;;;;;;32.00;22.00;;;;;-5.57;83.50;101557.72;6312525;20;3576358;-49
2023/02/06 02:25:51;;;;;;;;;24.00;20.33;;;;;-5.71;83.08;101559.84;6346522;20;1837800;-51
2023/02/06 02:29:01;;;;;;;;;42.33;25.00;;;;;-5.81;83.55;101558.63;6283326;20;3599218;-46
2023/02/06 02:32:03;;;;;;;;;36.33;26.33;;;;;-5.66;83.52;101563.53;6310700;20;3575255;-49
2023/02/06 02:35:19;;;;;;;;;19.00;16.00;;;;;-5.84;83.36;101560.28;6308851;20;2835702;-46
2023/02/06 02:38:02;;;;;;;;;28.80;15.80;;;;;-5.79;83.63;101566.56;6300425;20;2846143;-46
2023/02/06 02:41:04;;;;;;;;;43.00;36.00;;;;;-5.72;83.75;101565.91;6303594;20;3590874;-47
2023/02/06 02:44:32;;;;;;;;;52.00;41.33;;;;;-5.84;83.47;101563.78;6305267;20;3591923;-51
2023/02/06 02:47:07;;;;;;;;;56.67;43.67;;;;;-5.91;84.49;101576.56;6275774;20;3629847;-47
2023/02/06 02:49:37;;;;;;;;;53.00;42.00;;;;;-5.91;84.29;101572.22;6274873;20;2863858;-47
2023/02/06 02:52:05;;;;;;;;;49.00;39.00;;;;;-5.87;84.00;101567.97;6275399;20;2852419;-46
2023/02/06 02:54:34;;;;;;;;;48.33;37.67;;;;;-5.82;83.84;101576.88;6280317;20;3598270;-49
2023/02/06 02:57:16;;;;;;;;;39.00;33.67;;;;;-5.98;83.35;101579.00;6282096;20;3590985;-49
2023/02/06 02:59:47;;;;;;;;;39.00;32.67;;;;;-6.01;83.72;101573.66;6308400;20;3607540;-50
2023/02/06 03:02:27;;;;;;;;;49.00;35.33;;;;;-5.92;83.73;101585.22;6280796;20;3634783;-49
2023/02/06 03:05:03;;;;;;;;;30.00;26.33;;;;;-5.95;83.35;101586.03;6278318;20;3608742;-51
2023/02/06 03:08:40;;;;;;;;;46.67;37.00;;;;;-5.80;83.27;101585.69;6311702;20;3602344;-48
2023/02/06 03:11:17;;;;;;;;;57.50;43.50;;;;;-5.88;83.81;101576.66;6311540;20;2879449;-50
2023/02/06 03:14:10;;;;;;;;;51.00;41.50;;;;;-5.91;83.57;101564.38;6279091;20;2855521;-47
2023/02/06 03:16:55;;;;;;;;;46.00;36.00;;;;;-6.03;83.67;101570.09;6280184;20;3588948;-52
2023/02/06 03:19:34;;;;;;;;;41.00;35.67;;;;;-5.94;83.77;101573.88;6310487;20;3611715;-48
2023/02/06 03:22:05;;;;;;;;;21.75;17.50;;;;;-5.96;83.08;101574.69;6290896;20;1856829;-49
2023/02/06 03:24:38;;;;;;;;;44.33;33.00;;;;;-5.97;83.04;101580.78;6313587;20;3609639;-50
2023/02/06 03:27:14;;;;;;;;;40.67;35.33;;;;;-6.05;83.03;101574.38;6303494;20;3586800;-49
2023/02/06 03:29:46;;;;;;;;;39.33;35.33;;;;;-5.98;83.24;101581.63;6275563;20;3610752;-51
2023/02/06 03:32:27;;;;;;;;;56.67;44.00;;;;;-6.16;84.09;101582.66;6307541;20;3606640;-49
2023/02/06 03:35:25;;;;;;;;;43.00;35.50;;;;;-6.45;85.37;101572.91;6279225;20;2869055;-46
2023/02/06 03:37:54;;;;;;;;;43.33;35.33;;;;;-6.72;86.15;101580.56;6278745;20;3619022;-50
2023/02/06 03:40:26;;;;;;;;;46.33;38.00;;;;;-6.88;87.04;101571.25;6275509;20;3622619;-49
2023/02/06 03:42:59;;;;;;;;;91.00;59.50;;;;;-6.75;87.26;101564.78;6272606;20;2565032;-49
2023/02/06 03:45:41;;;;;;;;;122.83;88.17;;;;;-6.66;86.46;101569.47;6275330;20;4474239;-49
2023/02/06 03:48:21;;;;;;;;;134.67;86.33;;;;;-6.81;86.65;101574.13;6305323;20;4463971;-48
2023/02/06 03:50:53;;;;;;;;;142.00;94.67;;;;;-6.67;86.15;101576.41;6314102;20;3695023;-49
2023/02/06 03:53:25;;;;;;;;;95.40;62.40;;;;;-6.42;85.31;101574.75;6281239;20;3659641;-49
2023/02/06 03:56:05;;;;;;;;;155.33;106.67;;;;;-6.41;84.80;101572.19;6278518;20;4486679;-47
2023/02/06 03:58:36;;;;;;;;;158.00;114.67;;;;;-6.39;84.95;101577.47;6314714;20;3719013;-50
2023/02/06 04:01:07;;;;;;;;;82.00;58.33;;;;;-6.49;85.19;101577.97;6279703;20;2907619;-47
2023/02/06 04:03:36;;;;;;;;;80.33;59.67;;;;;-6.72;85.42;101582.28;6312321;20;3661778;-47
2023/02/06 04:06:04;;;;;;;;;56.50;43.50;;;;;-6.46;85.77;101581.56;6308076;20;2874298;-49
2023/02/06 04:08:34;;;;;;;;;47.00;37.75;;;;;-6.37;85.32;101574.91;6305843;20;2882658;-48
2023/02/06 04:11:02;;;;;;;;;58.00;43.00;;;;;-6.41;85.31;101576.53;6282523;20;2877325;-50
2023/02/06 04:13:31;;;;;;;;;70.33;51.67;;;;;-6.35;84.93;101578.47;6279900;20;3653447;-51
2023/02/06 04:16:01;;;;;;;;;77.00;57.67;;;;;-6.34;84.39;101580.28;6287748;20;3640881;-46
2023/02/06 04:18:31;;;;;;;;;180.67;143.00;;;;;-6.41;84.68;101574.78;6281456;20;3702420;-52
2023/02/06 04:21:06;;;;;;;;;196.67;162.33;;;;;-6.28;84.92;101576.16;6312181;20;3725251;-48
2023/02/06 04:23:34;;;;;;;;;156.67;123.67;;;;;-6.32;84.47;101574.25;6261726;20;2951460;-49
2023/02/06 04:26:04;;;;;;;;;133.33;116.83;;;;;-6.27;84.16;101561.34;6318014;20;4459725;-48
2023/02/06 04:28:33;;;;;;;;;103.50;84.17;;;;;-6.43;84.28;101575.56;6314954;20;3693196;-49
2023/02/06 04:31:03;;;;;;;;;82.33;63.00;;;;;-6.44;84.52;101569.47;6311693;20;2908665;-50
2023/02/06 04:33:32;;;;;;;;;74.40;55.40;;;;;-6.26;84.13;101579.72;6310367;20;3641928;-48
2023/02/06 04:36:00;;;;;;;;;68.50;52.50;;;;;-6.34;83.41;101585.50;6278296;20;2499682;-51
2023/02/06 04:38:28;;;;;;;;;64.50;48.50;;;;;-6.23;83.26;101579.81;6283225;20;2869079;-49
2023/02/06 04:41:04;;;;;;;;;61.33;45.67;;;;;-6.19;82.84;101578.19;6278833;20;3623236;-49
2023/02/06 04:43:32;;;;;;;;;66.50;49.00;;;;;-6.23;82.78;101576.31;6284019;20;2875354;-46
2023/02/06 04:46:01;;;;;;;;;64.00;50.67;;;;;-6.28;82.51;101564.81;6283637;20;3625347;-48
2023/02/06 04:48:31;;;;;;;;;74.50;57.00;;;;;-6.25;82.66;101581.47;6285918;20;3640946;-46
2023/02/06 04:51:00;;;;;;;;;91.67;79.33;;;;;-6.22;82.58;101578.09;6311261;20;3674240;-51
2023/02/06 04:53:28;;;;;;;;;76.00;58.00;;;;;-6.25;82.33;101583.22;6310474;20;2501435;-47
2023/02/06 04:56:06;;;;;;;;;74.60;56.00;;;;;-6.22;82.62;101585.94;6284821;20;3639886;-47
2023/02/06 04:58:38;;;;;;;;;65.00;49.33;;;;;-6.20;82.32;101590.38;6284540;20;3626464;-50
2023/02/06 05:01:07;;;;;;;;;48.00;34.00;;;;;-6.21;81.92;101596.47;6277601;20;2876361;-49
2023/02/06 05:03:37;;;;;;;;;55.67;44.00;;;;;-6.18;81.53;101603.53;6285776;20;2886953;-50
2023/02/06 05:06:06;;;;;;;;;57.33;45.00;;;;;-6.24;81.72;101609.44;6314841;20;3623182;-48
2023/02/06 05:08:35;;;;;;;;;35.67;27.67;;;;;-6.32;82.03;101604.72;6282114;20;3610713;-49
2023/02/06 05:11:03;;;;;;;;;53.00;44.00;;;;;-6.49;82.42;101602.34;6281798;20;2861795;-49
2023/02/06 05:13:32;;;;;;;;;50.50;43.00;;;;;-6.39;82.54;101597.50;6279831;20;2863844;-48
2023/02/06 05:16:15;;;;;;;;;55.33;41.33;;;;;-6.77;83.19;101610.84;6282781;20;3612843;-47
2023/02/06 05:18:44;;;;;;;;;79.50;59.50;;;;;-6.41;82.92;101606.16;6281809;20;2894135;-52
2023/02/06 05:21:14;;;;;;;;;85.67;74.33;;;;;-6.41;83.32;101587.84;6282210;20;3664870;-49
2023/02/06 05:23:42;;;;;;;;;82.00;64.50;;;;;-6.45;82.48;101591.22;6310418;20;2504462;-50
2023/02/06 05:26:11;;;;;;;;;73.00;53.33;;;;;-6.51;82.60;101604.00;6280903;20;2902419;-49
2023/02/06 05:28:39;;;;;;;;;53.00;42.33;;;;;-6.41;82.29;101605.28;6315823;20;3590929;-52
2023/02/06 05:31:08;;;;;;;;;53.67;44.33;;;;;-6.41;82.38;101598.31;6280030;20;3611849;-49
2023/02/06 05:33:37;;;;;;;;;64.67;48.67;;;;;-6.25;82.22;101601.50;6281895;20;3644223;-51
2023/02/06 05:36:07;;;;;;;;;64.00;53.00;;;;;-6.33;81.70;101605.56;6283191;20;3627336;-51
2023/02/06 05:38:35;;;;;;;;;69.50;54.00;;;;;-6.20;81.38;101606.06;6281764;20;2883728;-49
2023/02/06 05:41:04;;;;;;;;;77.40;60.00;;;;;-6.28;81.00;101612.75;6279617;20;3634648;-52
2023/02/06 05:43:33;;;;;;;;;78.60;61.60;;;;;-6.27;81.81;101619.72;6280667;20;3661715;-51
2023/02/06 05:46:03;;;;;;;;;72.60;58.00;;;;;-6.19;81.60;101620.03;6279456;20;3618071;-53
2023/02/06 05:48:33;;;;;;;;;85.00;69.40;;;;;-6.28;81.34;101617.97;6277881;20;3672145;-50
2023/02/06 05:51:03;;;;;;;;;84.83;69.50;;;;;-6.31;82.36;101622.19;6274745;20;3679610;-49
2023/02/06 05:53:32;;;;;;;;;79.00;62.80;;;;;-6.19;82.01;101617.41;6310175;20;3639846;-51
2023/02/06 05:56:00;;;;;;;;;70.50;55.50;;;;;-6.02;81.37;101616.31;6278145;20;2504445;-50
2023/02/06 05:58:31;;;;;;;;;62.50;48.33;;;;;-6.11;81.29;101620.31;6305808;20;3624237;-48
2023/02/06 06:00:59;;;;;;;;;70.00;55.00;;;;;-5.89;80.72;101604.56;6278044;20;2882602;-50
2023/02/06 06:03:28;;;;;;;;;74.20;59.60;;;;;-5.92;81.02;101621.84;6280149;20;3627388;-50
2023/02/06 06:05:59;;;;;;;;;58.67;42.67;;;;;-5.86;80.76;101611.63;6280123;20;3627405;-50
2023/02/06 06:08:28;;;;;;;;;61.00;48.50;;;;;-5.67;80.49;101602.69;6316137;20;2865990;-50
2023/02/06 06:10:56;;;;;;;;;34.67;22.67;;;;;-5.82;80.08;101603.03;6281597;20;3597190;-52
2023/02/06 06:13:25;;;;;;;;;50.20;39.60;;;;;-5.82;80.79;101610.88;6278038;20;3618096;-50
2023/02/06 06:15:53;;;;;;;;;52.50;39.00;;;;;-5.82;80.25;101609.19;6281835;20;2867360;-52
2023/02/06 06:18:21;;;;;;;;;45.00;30.50;;;;;-5.69;80.55;101604.38;6282935;20;2875477;-50
2023/02/06 06:20:49;;;;;;;;;52.50;39.50;;;;;-5.56;80.25;101615.31;6275911;20;2502859;-48
2023/02/06 06:23:18;;;;;;;;;24.33;19.00;;;;;-5.56;80.48;101609.19;6279693;20;3581580;-52
2023/02/06 06:25:48;;;;;;;;;26.00;20.00;;;;;-5.57;80.23;101603.06;6336093;20;2829551;-47
2023/02/06 06:28:17;;;;;;;;;28.33;24.33;;;;;-5.77;80.56;101611.94;6282791;20;3580477;-50
2023/02/06 06:30:45;;;;;;;;;33.67;27.67;;;;;-5.26;80.37;101606.75;6310422;20;3589840;-50
2023/02/06 06:33:15;;;;;;;;;27.67;24.00;;;;;-4.21;76.82;101606.56;6312829;20;3564925;-49
2023/02/06 06:35:44;;;;;;;;;31.33;22.00;;;;;-4.15;74.90;101611.09;6313012;20;3573200;-48
2023/02/06 06:38:12;;;;;;;;;29.67;24.33;;;;;-4.15;75.33;101610.22;6311756;20;3582667;-52
2023/02/06 06:40:41;;;;;;;;;29.33;27.00;;;;;-3.46;73.30;101606.88;6311706;20;3570082;-49
2023/02/06 06:43:10;;;;;;;;;32.00;24.33;;;;;-3.31;69.79;101605.53;6310230;20;3586792;-53
2023/02/06 06:45:38;;;;;;;;;46.33;32.67;;;;;-2.95;68.56;101604.72;6309574;20;3608669;-52
2023/02/06 06:48:07;;;;;;;;;44.00;35.33;;;;;-2.73;67.09;101598.22;6273196;20;3589999;-50
2023/02/06 06:50:36;;;;;;;;;30.33;24.00;;;;;-2.34;65.70;101609.59;6274798;20;3566929;-48
2023/02/06 06:53:04;;;;;;;;;34.00;26.00;;;;;-1.87;64.16;101597.44;6314920;20;2854470;-50
2023/02/06 06:55:32;;;;;;;;;46.50;36.00;;;;;-2.14;61.94;101591.59;6283219;20;2861736;-48
2023/02/06 06:58:00;;;;;;;;;49.50;34.50;;;;;-1.59;61.24;101598.84;6278814;20;2865934;-49
2023/02/06 07:00:28;;;;;;;;;38.50;32.50;;;;;-0.83;59.91;101601.06;6275986;20;2500316;-46
2023/02/06 07:02:56;;;;;;;;;40.00;28.50;;;;;-1.24;61.23;101609.13;6280425;20;2873196;-47
2023/02/06 07:05:25;;;;;;;;;28.00;20.67;;;;;-1.03;60.61;101605.97;6279819;20;3591939;-49
2023/02/06 07:07:54;;;;;;;;;54.50;40.50;;;;;-0.43;57.70;101601.66;6308929;20;2883621;-47
2023/02/06 07:10:23;;;;;;;;;47.50;38.00;;;;;1.15;54.53;101607.81;6275887;20;2876374;-47
2023/02/06 07:12:52;;;;;;;;;47.50;36.50;;;;;0.92;53.24;101615.53;6279945;20;2877359;-47
2023/02/06 07:15:20;;;;;;;;;77.00;60.50;;;;;1.25;53.77;101615.81;6275565;20;2506620;-49
2023/02/06 07:17:49;;;;;;;;;86.67;64.67;;;;;1.05;54.23;101620.06;6279551;20;2896254;-49
2023/02/06 07:20:19;;;;;;;;;41.67;38.67;;;;;1.65;52.55;101620.50;6310866;20;2876499;-49
2023/02/06 07:22:49;;;;;;;;;35.00;33.00;;;;;0.58;54.64;101624.03;6308395;20;2502421;-48
2023/02/06 07:25:19;;;;;;;;;52.33;35.33;;;;;0.22;53.86;101621.88;6281471;20;3642043;-50
2023/02/06 07:27:48;;;;;;;;;71.50;55.00;;;;;-0.49;57.17;101617.41;6316440;20;2871191;-46
2023/02/06 07:30:18;;;;;;;;;90.67;68.67;;;;;0.93;55.07;101622.63;6281410;20;3646164;-51
2023/02/06 07:32:46;;;;;;;;;54.00;42.50;;;;;1.04;54.37;101635.03;6317611;20;2861809;-53
2023/02/06 07:35:16;;;;;;;;;45.50;38.50;;;;;1.72;52.31;101643.50;6279763;20;2867044;-47
2023/02/06 07:37:45;;;;;;;;;67.00;50.50;;;;;2.12;50.91;101634.00;6285716;20;2874261;-48
2023/02/06 07:40:13;;;;;;;;;40.00;37.00;;;;;1.47;52.73;101639.78;6284962;20;2862780;-48
2023/02/06 07:42:43;;;;;;;;;46.33;34.00;;;;;0.32;53.79;101644.00;6284430;20;2865003;-47
2023/02/06 07:45:12;;;;;;;;;53.67;41.67;;;;;-1.08;59.33;101638.41;6312847;20;2876335;-49
2023/02/06 07:47:42;;;;;;;;;36.00;28.00;;;;;-1.68;63.21;101634.69;6311775;20;2862783;-46
2023/02/06 07:50:11;;;;;;;;;29.50;26.00;;;;;-1.59;63.19;101634.84;6281907;20;2864953;-47
2023/02/06 07:52:40;;;;;;;;;27.67;23.67;;;;;-1.75;64.58;101633.66;6283955;20;3565411;-47
2023/02/06 07:55:09;;;;;;;;;30.00;19.00;;;;;-1.65;63.57;101635.63;6318359;20;3565923;-48
2023/02/06 07:57:36;;;;;;;;;33.50;25.50;;;;;-1.55;62.40;101641.97;6317935;20;2852366;-48
2023/02/06 08:00:07;;;;;;;;;24.00;16.67;;;;;-1.46;62.44;101638.59;6286525;20;3563880;-50
2023/02/06 08:02:35;;;;;;;;;24.67;23.33;;;;;-1.50;62.31;101637.66;6318435;20;3560693;-50
2023/02/06 08:05:04;;;;;;;;;33.33;28.33;;;;;-1.35;61.14;101635.28;6316352;20;3599235;-50
2023/02/06 08:07:34;;;;;;;;;28.33;25.33;;;;;-1.50;62.46;101631.50;6283203;20;3572335;-51
2023/02/06 08:10:03;;;;;;;;;28.00;27.00;;;;;-1.31;62.81;101630.09;6320724;20;2844059;-50
2023/02/06 08:12:31;;;;;;;;;25.00;21.00;;;;;-0.96;60.78;101642.16;6286253;20;2826528;-48
2023/02/06 08:15:00;;;;;;;;;33.00;21.33;;;;;-1.13;60.09;101631.31;6285449;20;3599274;-49
2023/02/06 08:17:28;;;;;;;;;35.67;24.00;;;;;-1.36;62.50;101640.56;6285020;20;3598241;-52
2023/02/06 08:19:57;;;;;;;;;28.33;21.00;;;;;-1.34;62.61;101630.94;6283171;20;3566926;-50
2023/02/06 08:22:27;;;;;;;;;25.00;21.00;;;;;-1.06;60.95;101636.69;6316946;20;2836830;-51
2023/02/06 08:24:56;;;;;;;;;27.33;19.00;;;;;-1.03;60.59;101631.47;6284809;20;3578384;-49
2023/02/06 08:27:26;;;;;;;;;25.00;19.67;;;;;-0.65;60.69;101631.22;6314152;20;3572305;-53
2023/02/06 08:29:56;;;;;;;;;29.33;22.33;;;;;-0.91;60.64;101626.41;6280733;20;3567965;-51
2023/02/06 08:32:25;;;;;;;;;22.00;22.00;;;;;-0.94;61.13;101632.53;6316529;20;2831678;-50
2023/02/06 08:34:53;;;;;;;;;24.00;21.00;;;;;-1.08;59.10;101631.38;6280803;20;2839963;-50
2023/02/06 08:37:21;;;;;;;;;25.00;18.50;;;;;-0.64;59.25;101635.63;6282388;20;2839294;-50
2023/02/06 08:39:49;;;;;;;;;29.00;19.00;;;;;-0.84;59.24;101644.13;6284495;20;2830539;-48
2023/02/06 08:42:16;;;;;;;;;38.00;22.50;;;;;-0.54;60.11;101632.28;6284676;20;2866989;-50
2023/02/06 08:44:44;;;;;;;;;29.50;22.50;;;;;-0.54;60.14;101634.91;6281846;20;2496156;-47
2023/02/06 08:47:13;;;;;;;;;28.67;25.67;;;;;-0.41;58.45;101636.88;6285422;20;3577346;-47
2023/02/06 08:49:41;;;;;;;;;22.50;21.50;;;;;-0.61;58.93;101630.41;6313958;20;2846145;-50
2023/02/06 08:52:09;;;;;;;;;28.33;25.67;;;;;0.02;58.45;101631.28;6284042;20;3579453;-49
2023/02/06 08:54:37;;;;;;;;;26.00;23.00;;;;;-0.13;58.30;101630.22;6279440;20;2826330;-51
2023/02/06 08:57:08;;;;;;;;;161.00;149.00;;;;;-0.05;56.80;101625.94;6283702;20;3727549;-48
2023/02/06 08:59:38;;;;;;;;;73.00;54.67;;;;;-0.17;57.95;101628.41;6281270;20;3622267;-48
2023/02/06 09:02:10;;;;;;;;;58.67;42.33;;;;;-0.55;58.18;101625.22;6315912;20;2880532;-50
2023/02/06 09:04:41;;;;;;;;;55.33;41.67;;;;;0.17;57.22;101624.44;6313998;20;2885848;-47
2023/02/06 09:07:09;;;;;;;;;33.50;27.00;;;;;0.07;57.21;101622.56;6310807;20;2496157;-49
2023/02/06 09:09:38;;;;;;;;;34.00;26.67;;;;;0.18;56.74;101620.03;6280471;20;3592997;-49
2023/02/06 09:12:06;;;;;;;;;29.50;23.00;;;;;0.19;55.83;101624.47;6311832;20;2500291;-50
2023/02/06 09:14:34;;;;;;;;;50.50;40.00;;;;;0.04;56.21;101616.34;6279565;20;2508734;-52
2023/02/06 09:17:03;;;;;;;;;29.50;24.50;;;;;1.03;54.75;101622.72;6282436;20;2850283;-51
2023/02/06 09:19:31;;;;;;;;;33.00;26.00;;;;;0.26;55.13;101621.00;6282869;20;2848323;-50
2023/02/06 09:21:59;;;;;;;;;23.25;16.25;;;;;0.22;54.44;101624.50;6175112;20;2839820;-52
2023/02/06 09:24:30;;;;;;;;;24.67;20.67;;;;;0.22;54.02;101619.22;6312092;20;3575406;-49
2023/02/06 09:26:59;;;;;;;;;23.00;20.00;;;;;0.38;53.89;101620.28;6315610;20;3561898;-51
2023/02/06 09:29:30;;;;;;;;;34.50;27.50;;;;;0.51;53.28;101624.84;6315154;20;2850319;-46
2023/02/06 09:32:00;;;;;;;;;34.00;23.67;;;;;0.64;53.65;101626.75;6284945;20;3595084;-46
2023/02/06 09:34:29;;;;;;;;;25.00;20.00;;;;;0.49;53.10;101626.56;6284631;20;3576353;-50
2023/02/06 09:36:57;;;;;;;;;34.50;28.50;;;;;0.37;53.17;101621.13;6316482;20;2840926;-47
2023/02/06 09:39:25;;;;;;;;;32.50;25.50;;;;;0.83;52.98;101621.63;6283742;20;2848239;-47
2023/02/06 09:42:36;;;;;;;;;15.67;13.67;;;;;0.37;51.99;101621.13;6279919;20;3509781;-52
2023/02/06 09:45:21;;;;;;;;;23.00;20.00;;;;;0.55;52.46;101620.47;6282123;20;2825605;-50
2023/02/06 09:48:15;;;;;;;;;36.50;24.00;;;;;0.96;52.62;101617.34;6283428;20;2858638;-49
2023/02/06 09:51:08;;;;;;;;;35.00;30.00;;;;;1.12;51.79;101619.25;6280156;20;2498269;-49
2023/02/06 09:54:11;;;;;;;;;46.00;37.50;;;;;1.21;51.01;101614.03;6281505;20;2848229;-47
2023/02/06 09:57:38;;;;;;;;;16.75;12.00;;;;;0.82;50.89;101610.19;6296324;20;1826168;-49
2023/02/06 10:00:40;;;;;;;;;22.33;12.00;;;;;0.99;53.50;101597.09;6309785;20;3540916;-47
2023/02/06 10:03:35;;;;;;;;;41.33;36.00;;;;;0.88;51.57;101598.75;6310256;20;2866020;-48
2023/02/06 10:06:24;;;;;;;;;33.00;30.50;;;;;1.12;51.50;101608.66;6311202;20;2853416;-51
2023/02/06 10:09:15;;;;;;;;;20.00;12.00;;;;;0.96;52.03;101601.47;6278831;20;2801293;-51
2023/02/06 10:12:05;;;;;;;;;52.00;44.50;;;;;1.67;49.78;101595.81;6278627;20;2509075;-48
2023/02/06 10:14:55;;;;;;;;;27.00;22.00;;;;;1.63;49.99;101601.06;6280577;20;2833752;-52
2023/02/06 10:17:58;;;;;;;;;24.50;20.00;;;;;1.35;51.23;101594.72;6283312;20;2827377;-47
2023/02/06 10:20:42;;;;;;;;;76.00;62.00;;;;;1.08;50.27;101597.19;6282602;20;3608605;-47
2023/02/06 10:23:36;;;;;;;;;13.33;5.33;;;;;0.99;51.32;101597.09;6276350;20;3484794;-50
2023/02/06 10:26:17;;;;;;;;;19.83;17.17;;;;;1.42;50.34;101597.44;6337654;20;2832723;-50
2023/02/06 10:28:57;;;;;;;;;30.00;24.00;;;;;1.01;51.20;101592.72;6311502;20;2846124;-47
2023/02/06 10:31:39;;;;;;;;;57.67;43.00;;;;;1.08;51.05;101594.53;6281383;20;3630459;-47
2023/02/06 10:34:42;;;;;;;;;19.33;17.33;;;;;1.42;50.44;101588.59;6277749;20;3550362;-48
2023/02/06 10:38:14;;;;;;;;;16.00;12.00;;;;;1.00;49.48;101595.31;6311915;20;2794136;-50
2023/02/06 10:41:02;;;;;;;;;18.50;13.00;;;;;1.02;50.19;101585.66;6278446;20;2812860;-48
2023/02/06 10:43:52;;;;;;;;;3.33;1.67;;;;;0.65;52.26;101585.31;6281477;20;3459689;-52
2023/02/06 10:46:44;;;;;;;;;18.00;9.00;;;;;0.45;51.79;101577.22;6311170;20;2504504;-46
2023/02/06 10:49:30;;;;;;;;;41.50;29.50;;;;;1.16;51.01;101572.53;6275050;20;2500313;-50
2023/02/06 10:52:33;;;;;;;;;26.50;21.00;;;;;0.85;52.19;101567.00;6283941;20;2832593;-46
2023/02/06 10:55:25;;;;;;;;;25.00;20.50;;;;;0.76;51.96;101569.56;6280985;20;2831573;-49
2023/02/06 10:58:54;;;;;;;;;20.00;17.50;;;;;0.99;51.19;101560.06;6279910;20;2837882;-51
2023/02/06 11:01:28;;;;;;;;;17.67;13.00;;;;;0.76;51.77;101561.63;6276398;20;2815953;-48
2023/02/06 11:04:04;;;;;;;;;20.33;16.67;;;;;0.92;51.20;101562.66;6310345;20;3558600;-47
2023/02/06 11:06:32;;;;;;;;;21.50;17.50;;;;;1.16;50.64;101561.94;6313592;20;2827436;-49
2023/02/06 11:09:01;;;;;;;;;19.00;16.67;;;;;1.14;50.12;101547.84;6278196;20;3567018;-45
2023/02/06 11:11:41;;;;;;;;;26.00;21.00;;;;;1.00;50.70;101543.34;6309290;20;2500343;-51
2023/02/06 11:14:36;;;;;;;;;25.33;21.33;;;;;1.33;50.76;101555.03;6280043;20;3566951;-52
2023/02/06 11:17:04;;;;;;;;;29.00;22.50;;;;;1.12;51.72;101549.59;6311789;20;2846136;-50
2023/02/06 11:19:39;;;;;;;;;20.00;12.00;;;;;1.40;49.94;101551.53;6282121;20;2801447;-51
2023/02/06 11:22:16;;;;;;;;;17.33;14.00;;;;;1.12;50.56;101550.47;6279866;20;2813836;-49
2023/02/06 11:25:09;;;;;;;;;20.50;18.50;;;;;1.12;51.27;101541.66;6310373;20;2820221;-50
2023/02/06 11:27:42;;;;;;;;;24.67;20.67;;;;;0.99;50.71;101544.19;6278798;20;3565870;-48
2023/02/06 11:30:40;;;;;;;;;23.00;17.33;;;;;1.14;49.43;101537.25;6310152;20;3581598;-50